Hovedside
METAR-TAF:

METAR-TAF

Lufthavner :

Johannesburg, Sør-Afrika

breddegrad: 26-09S, lengdegrad: 28-00E, høyde over havet: 1626 m

Gjeldene værobservasjon

Denne rapporten ble laget for 45 minutter siden, klokken 01:00 UTC
Vind 1 kt fra Vest
Temperatur 7°C
Luftfuktighet 57%
Trykk 1029 hPa

METAR: FAJB 140100Z AUTO 26001KT //// // ////// 07/M01 Q1029

Tid: 03:45 (01:45 UTC)


TAF: fraværende

Værobservasjoner og værvarsel for over 4000 flyplasser (METAR- og TAF-rapporter).

Tilgjengelige stasjoner er representert av de røde og gule prikkene på kartet.

Hold musepekeren over prikken for å se navnet på stasjonen.

Klikk så for å se værobservasjoner og -varsler.

For å forandre kartet kan du klikke på den grønne knappen med svart kryss for å zoome inn, på den grønne knappen med strek for å zoome ut, eller på de grønne pilene for å se tilstøtende kart.


METAR-TAF: